createdAt,value
2023-04-20T00:01:42.961Z,56.40
2023-04-20T00:04:11.546Z,62.40
2023-04-20T00:06:40.093Z,47.00
2023-04-20T00:09:08.857Z,44.30
2023-04-20T00:11:37.688Z,58.10
2023-04-20T00:14:06.914Z,51.70
2023-04-20T00:16:35.418Z,52.60
2023-04-20T00:19:04.046Z,56.10
2023-04-20T00:21:32.525Z,63.30
2023-04-20T00:24:01.308Z,71.60
2023-04-20T00:26:30.892Z,71.30
2023-04-20T00:28:59.439Z,50.20
2023-04-20T00:31:28.246Z,44.40
2023-04-20T00:33:56.743Z,49.50
2023-04-20T00:36:25.234Z,70.10
2023-04-20T00:38:53.955Z,52.20
2023-04-20T00:41:22.410Z,51.10
2023-04-20T00:43:56.797Z,61.20
2023-04-20T00:46:27.056Z,56.00
2023-04-20T00:48:56.580Z,57.00
2023-04-20T00:51:26.309Z,68.00
2023-04-20T00:53:54.728Z,64.00
2023-04-20T00:56:23.647Z,69.70
2023-04-20T00:58:52.180Z,74.70
2023-04-20T01:01:21.199Z,66.40
2023-04-20T01:03:49.724Z,46.90
2023-04-20T01:06:18.337Z,59.40
2023-04-20T01:08:51.867Z,62.90
2023-04-20T01:11:20.357Z,62.10
2023-04-20T01:13:50.134Z,66.40
2023-04-20T01:16:18.599Z,58.80
2023-04-20T01:18:49.301Z,64.30
2023-04-20T01:21:22.402Z,67.20
2023-04-20T01:23:50.960Z,50.50
2023-04-20T01:26:21.969Z,57.90
2023-04-20T01:28:52.799Z,43.10
2023-04-20T01:31:22.893Z,62.20
2023-04-20T01:33:52.432Z,45.10
2023-04-20T01:36:22.448Z,72.90
2023-04-20T01:38:52.549Z,57.60
2023-04-20T01:41:21.225Z,76.90
2023-04-20T01:43:51.577Z,66.60
2023-04-20T01:46:20.029Z,65.40
2023-04-20T01:48:48.888Z,73.10
2023-04-20T01:51:17.451Z,48.20
2023-04-20T01:53:46.154Z,74.70
2023-04-20T01:56:14.584Z,54.00
2023-04-20T01:58:44.714Z,59.20
2023-04-20T02:01:13.078Z,53.10
2023-04-20T02:03:41.545Z,70.10
2023-04-20T02:06:10.124Z,49.50
2023-04-20T02:08:38.437Z,52.70
2023-04-20T02:11:09.618Z,51.40
2023-04-20T02:13:38.254Z,59.90
2023-04-20T02:16:07.582Z,60.60
2023-04-20T02:18:37.506Z,44.50
2023-04-20T02:21:06.371Z,62.90
2023-04-20T02:23:35.391Z,44.80
2023-04-20T02:26:03.796Z,57.60
2023-04-20T02:28:33.001Z,41.60
2023-04-20T02:31:01.427Z,70.30
2023-04-20T02:33:30.140Z,60.50
2023-04-20T02:35:58.458Z,47.20
2023-04-20T02:38:27.427Z,63.40
2023-04-20T02:40:55.899Z,57.30
2023-04-20T02:43:24.210Z,56.50
2023-04-20T02:45:52.640Z,52.60
2023-04-20T02:48:22.575Z,44.30
2023-04-20T02:50:50.945Z,53.50
2023-04-20T02:53:24.469Z,48.40
2023-04-20T02:56:00.155Z,49.80
2023-04-20T02:58:43.997Z,50.30
2023-04-20T03:01:32.939Z,50.80
2023-04-20T03:04:06.782Z,50.70
2023-04-20T03:06:40.901Z,68.70
2023-04-20T03:09:11.041Z,56.80
2023-04-20T03:11:55.068Z,71.40
2023-04-20T03:14:43.745Z,58.40
2023-04-20T03:17:12.113Z,61.50
2023-04-20T03:19:41.733Z,47.40
2023-04-20T03:22:10.452Z,57.30
2023-04-20T03:24:39.338Z,53.60
2023-04-20T03:27:17.079Z,59.60
2023-04-20T03:30:01.146Z,56.10
2023-04-20T03:32:31.426Z,55.40
2023-04-20T03:35:02.173Z,55.70
2023-04-20T03:37:31.113Z,62.20
2023-04-20T03:39:59.510Z,40.60
2023-04-20T03:42:28.036Z,57.40
2023-04-20T03:44:56.505Z,51.10
2023-04-20T03:47:25.183Z,75.50
2023-04-20T03:49:53.648Z,38.30
2023-04-20T03:52:21.965Z,63.60
2023-04-20T03:54:50.469Z,54.60
2023-04-20T03:57:19.009Z,57.30
2023-04-20T03:59:47.753Z,59.10
2023-04-20T04:02:18.887Z,60.50
2023-04-20T04:04:48.132Z,66.80
2023-04-20T04:07:16.666Z,47.90
2023-04-20T04:09:45.499Z,39.50
2023-04-20T04:12:14.165Z,56.80
2023-04-20T04:14:42.615Z,56.50
2023-04-20T04:17:15.155Z,49.70
2023-04-20T04:19:43.830Z,68.90
2023-04-20T04:22:12.369Z,68.50
2023-04-20T04:24:49.076Z,54.30
2023-04-20T04:27:19.371Z,68.80
2023-04-20T04:29:54.635Z,67.70
2023-04-20T04:32:24.747Z,61.20
2023-04-20T04:34:53.980Z,57.70
2023-04-20T04:37:22.799Z,65.60
2023-04-20T04:39:53.743Z,50.20
2023-04-20T04:42:28.287Z,62.10
2023-04-20T04:44:58.756Z,44.80
2023-04-20T04:47:32.599Z,46.50
2023-04-20T04:50:03.504Z,61.10
2023-04-20T04:52:35.890Z,52.60
2023-04-20T04:55:08.511Z,46.50
2023-04-20T04:57:38.834Z,52.80
2023-04-20T05:00:12.584Z,56.40
2023-04-20T05:02:41.935Z,63.20
2023-04-20T05:05:10.516Z,41.00
2023-04-20T05:07:40.257Z,42.90
2023-04-20T05:10:09.103Z,44.50
2023-04-20T05:12:39.616Z,57.90
2023-04-20T05:15:08.804Z,50.60
2023-04-20T05:17:37.244Z,54.90
2023-04-20T05:20:07.658Z,44.70
2023-04-20T05:22:36.538Z,51.60
2023-04-20T05:25:06.675Z,49.60
2023-04-20T05:27:35.673Z,42.70
2023-04-20T05:30:17.141Z,53.00
2023-04-20T05:32:51.387Z,47.20
2023-04-20T05:35:21.867Z,47.00
2023-04-20T05:37:50.335Z,42.10
2023-04-20T05:40:18.897Z,42.40
2023-04-20T05:42:47.315Z,43.10
2023-04-20T05:45:15.623Z,44.90
2023-04-20T05:47:58.170Z,45.00
2023-04-20T05:50:27.782Z,49.90
2023-04-20T05:52:56.276Z,50.40
2023-04-20T05:55:24.721Z,50.90
2023-04-20T05:57:53.169Z,36.40
2023-04-20T06:00:23.805Z,42.70
2023-04-20T06:02:55.185Z,47.00
2023-04-20T06:05:23.882Z,38.20
2023-04-20T06:07:53.010Z,40.50
2023-04-20T06:10:21.639Z,49.90
2023-04-20T06:12:50.172Z,54.60
2023-04-20T06:15:18.923Z,42.90
2023-04-20T06:17:47.912Z,48.10
2023-04-20T06:20:17.082Z,45.10
2023-04-20T06:22:46.438Z,32.20
2023-04-20T06:25:18.315Z,46.90
2023-04-20T06:27:48.181Z,34.40
2023-04-20T06:30:17.559Z,55.70
2023-04-20T06:32:46.144Z,44.00
2023-04-20T06:35:14.544Z,31.80
2023-04-20T06:37:43.120Z,30.10
2023-04-20T06:40:12.078Z,36.40
2023-04-20T06:42:41.355Z,36.20
2023-04-20T06:45:10.246Z,35.60
2023-04-20T06:47:38.888Z,25.10
2023-04-20T06:50:10.183Z,35.30
2023-04-20T06:52:40.615Z,33.70
2023-04-20T06:55:10.032Z,19.90
2023-04-20T06:57:39.911Z,27.50
2023-04-20T07:00:10.049Z,18.00
2023-04-20T07:02:43.579Z,38.00
2023-04-20T07:05:12.360Z,27.10
2023-04-20T07:07:42.181Z,16.10
2023-04-20T07:10:12.957Z,16.20
2023-04-20T07:12:43.919Z,22.90
2023-04-20T07:15:13.615Z,20.20
2023-04-20T07:17:42.398Z,16.00
2023-04-20T07:20:11.355Z,14.40
2023-04-20T07:22:40.368Z,14.20
2023-04-20T07:25:09.847Z,12.50
2023-04-20T07:27:40.652Z,7.70
2023-04-20T07:30:10.956Z,17.80
2023-04-20T07:32:41.637Z,15.30
2023-04-20T07:35:10.593Z,11.90
2023-04-20T07:37:39.121Z,12.00
2023-04-20T07:40:08.830Z,14.60
2023-04-20T07:42:37.838Z,12.50
2023-04-20T07:45:11.253Z,12.50
2023-04-20T07:47:41.103Z,19.60
2023-04-20T07:50:09.686Z,13.80
2023-04-20T07:52:38.899Z,14.10
2023-04-20T07:55:08.460Z,24.10
2023-04-20T07:57:37.027Z,11.50
2023-04-20T08:00:07.577Z,14.00
2023-04-20T08:02:42.237Z,10.90
2023-04-20T08:05:11.682Z,12.50
2023-04-20T08:07:40.919Z,23.50
2023-04-20T08:10:10.599Z,7.20
2023-04-20T08:12:40.681Z,9.70
2023-04-20T08:15:10.123Z,9.20
2023-04-20T08:17:38.671Z,10.90
2023-04-20T08:20:10.798Z,9.40
2023-04-20T08:22:39.594Z,14.10
2023-04-20T08:25:08.703Z,8.50
2023-04-20T08:27:37.266Z,7.40
2023-04-20T08:30:06.873Z,5.30
2023-04-20T08:32:35.522Z,9.70
2023-04-20T08:35:05.286Z,13.00
2023-04-20T08:37:34.674Z,4.60
2023-04-20T08:40:03.815Z,5.90
2023-04-20T08:42:32.537Z,10.40
2023-04-20T08:45:01.466Z,10.10
2023-04-20T08:47:31.611Z,14.00
2023-04-20T08:50:01.110Z,10.20
2023-04-20T08:52:29.497Z,5.80
2023-04-20T08:54:58.094Z,9.20
2023-04-20T08:57:26.571Z,9.70
2023-04-20T08:59:56.568Z,9.40
2023-04-20T09:02:25.096Z,11.70
2023-04-20T09:05:05.324Z,7.50
2023-04-20T09:07:33.886Z,6.80
2023-04-20T09:10:02.496Z,9.40
2023-04-20T09:12:41.212Z,10.70
2023-04-20T09:15:11.005Z,17.90
2023-04-20T09:17:41.478Z,14.40
2023-04-20T09:20:11.554Z,20.00
2023-04-20T09:22:41.260Z,17.70
2023-04-20T09:25:17.079Z,16.70
2023-04-20T09:28:02.855Z,17.00
2023-04-20T09:30:49.232Z,16.00
2023-04-20T09:33:19.804Z,14.10
2023-04-20T09:35:48.236Z,16.20
2023-04-20T09:38:17.560Z,19.70
2023-04-20T09:40:46.160Z,18.40
2023-04-20T09:43:20.271Z,15.80
2023-04-20T09:45:49.425Z,17.70
2023-04-20T09:48:19.659Z,18.40
2023-04-20T09:50:51.099Z,21.90
2023-04-20T09:53:20.876Z,19.80
2023-04-20T09:55:52.183Z,22.60
2023-04-20T09:58:21.605Z,27.70
2023-04-20T10:00:51.434Z,28.10
2023-04-20T10:03:22.169Z,31.80
2023-04-20T10:05:52.976Z,27.70
2023-04-20T10:08:22.286Z,35.40
2023-04-20T10:10:51.797Z,25.30
2023-04-20T10:13:22.138Z,33.80
2023-04-20T10:15:50.560Z,39.20
2023-04-20T10:18:23.930Z,35.60
2023-04-20T10:21:06.111Z,57.00
2023-04-20T10:23:34.970Z,30.50
2023-04-20T10:26:04.110Z,38.20
2023-04-20T10:28:40.864Z,37.40
2023-04-20T10:31:13.308Z,41.90
2023-04-20T10:33:55.757Z,50.00
2023-04-20T10:36:36.969Z,39.80
2023-04-20T10:39:20.227Z,37.70
2023-04-20T10:42:04.133Z,41.10
2023-04-20T10:44:34.384Z,45.00
2023-04-20T10:47:02.808Z,66.90
2023-04-20T10:49:32.832Z,45.70
2023-04-20T10:52:01.732Z,50.00
2023-04-20T10:54:38.378Z,50.60
2023-04-20T10:57:07.600Z,66.10
2023-04-20T10:59:37.486Z,80.70
2023-04-20T11:02:11.412Z,76.20
2023-04-20T11:04:39.842Z,58.80
2023-04-20T11:07:10.470Z,79.70
2023-04-20T11:09:39.277Z,78.80
2023-04-20T11:12:12.282Z,71.70
2023-04-20T11:14:58.276Z,102.30
2023-04-20T11:17:38.048Z,67.00
2023-04-20T11:20:14.565Z,83.50
2023-04-20T11:22:44.261Z,68.20
2023-04-20T11:25:13.361Z,54.20
2023-04-20T11:27:43.316Z,59.30
2023-04-20T11:30:11.941Z,54.30
2023-04-20T11:32:40.534Z,55.70
2023-04-20T11:35:11.330Z,60.50
2023-04-20T11:37:54.955Z,42.60
2023-04-20T11:40:23.628Z,47.60
2023-04-20T11:42:52.136Z,68.00
2023-04-20T11:45:20.371Z,49.00
2023-04-20T11:47:49.557Z,54.70
2023-04-20T11:50:17.961Z,51.90
2023-04-20T11:52:46.317Z,51.40
2023-04-20T11:55:14.892Z,50.80
2023-04-20T11:57:43.793Z,52.40
2023-04-20T12:00:13.320Z,44.40
2023-04-20T12:02:44.276Z,42.00
2023-04-20T12:05:12.826Z,52.00
2023-04-20T12:07:42.081Z,43.60
2023-04-20T12:10:10.749Z,53.80
2023-04-20T12:12:42.332Z,60.70
2023-04-20T12:15:10.934Z,44.10
2023-04-20T12:17:39.713Z,52.70
2023-04-20T12:20:11.742Z,44.70
2023-04-20T12:22:41.120Z,49.40
2023-04-20T12:25:09.866Z,53.10
2023-04-20T12:27:38.455Z,52.80
2023-04-20T12:30:09.434Z,56.40
2023-04-20T12:35:08.706Z,46.20
2023-04-20T12:37:37.838Z,51.50
2023-04-20T12:40:07.396Z,70.50
2023-04-20T12:42:36.438Z,56.00
2023-04-20T12:45:05.117Z,59.40
2023-04-20T12:47:33.565Z,49.70
2023-04-20T12:50:02.492Z,58.30
2023-04-20T12:52:31.110Z,64.40
2023-04-20T12:54:59.879Z,62.50
2023-04-20T12:57:28.527Z,46.10
2023-04-20T12:59:56.780Z,56.40
2023-04-20T13:02:25.348Z,52.50
2023-04-20T13:04:53.764Z,46.20
2023-04-20T13:07:22.193Z,57.40
2023-04-20T13:09:50.614Z,55.80
2023-04-20T13:12:19.242Z,55.40
2023-04-20T13:14:47.605Z,52.50
2023-04-20T13:17:16.608Z,63.90
2023-04-20T13:19:47.575Z,52.70
2023-04-20T13:22:18.799Z,51.90
2023-04-20T13:24:47.570Z,58.80
2023-04-20T13:27:15.901Z,54.60
2023-04-20T13:29:44.267Z,60.20
2023-04-20T13:32:12.759Z,56.10
2023-04-20T13:34:41.257Z,56.40
2023-04-20T13:37:10.159Z,70.90
2023-04-20T13:39:38.475Z,61.70
2023-04-20T13:42:06.859Z,56.80
2023-04-20T13:44:36.151Z,45.40
2023-04-20T13:47:04.726Z,55.70
2023-04-20T13:49:33.181Z,56.70
2023-04-20T13:52:02.034Z,67.70
2023-04-20T13:54:30.682Z,69.80
2023-04-20T13:56:59.151Z,75.60
2023-04-20T13:59:27.489Z,73.50
2023-04-20T14:01:55.862Z,78.50
2023-04-20T14:04:24.387Z,80.50
2023-04-20T14:06:53.218Z,95.90
2023-04-20T14:09:21.688Z,112.20
2023-04-20T14:11:52.865Z,100.00
2023-04-20T14:14:23.941Z,95.40
2023-04-20T14:16:52.325Z,99.30
2023-04-20T14:19:20.563Z,82.70
2023-04-20T14:21:50.122Z,98.10
2023-04-20T14:24:18.890Z,98.30
2023-04-20T14:26:47.508Z,119.60
2023-04-20T14:29:15.996Z,113.80
2023-04-20T14:31:44.535Z,105.20
2023-04-20T14:34:16.306Z,91.50
2023-04-20T14:36:45.650Z,102.60
2023-04-20T14:39:14.832Z,110.80
2023-04-20T14:41:43.098Z,82.80
2023-04-20T14:44:11.484Z,77.80
2023-04-20T14:46:42.446Z,82.30
2023-04-20T14:49:11.407Z,80.70
2023-04-20T14:51:39.648Z,82.60
2023-04-20T14:54:07.921Z,77.10
2023-04-20T14:56:36.213Z,83.90
2023-04-20T14:59:04.634Z,73.60
2023-04-20T15:01:34.168Z,65.10
2023-04-20T15:04:03.002Z,65.60
2023-04-20T15:06:32.400Z,73.90
2023-04-20T15:09:00.893Z,68.20
2023-04-20T15:11:29.529Z,58.80
2023-04-20T15:13:57.963Z,74.50
2023-04-20T15:16:26.569Z,65.10
2023-04-20T15:18:54.914Z,64.30
2023-04-20T15:21:23.757Z,87.80
2023-04-20T15:23:52.095Z,78.20
2023-04-20T15:26:20.593Z,64.80
2023-04-20T15:28:50.257Z,66.40
2023-04-20T15:31:19.492Z,65.00
2023-04-20T15:33:50.551Z,57.60
2023-04-20T15:36:20.710Z,78.10
2023-04-20T15:38:49.033Z,62.80
2023-04-20T15:41:17.493Z,46.80
2023-04-20T15:43:46.195Z,45.80
2023-04-20T15:46:14.572Z,66.70
2023-04-20T15:48:45.131Z,47.70
2023-04-20T15:51:14.022Z,51.80
2023-04-20T15:53:44.967Z,37.80
2023-04-20T15:56:13.654Z,47.90
2023-04-20T15:58:42.115Z,62.40
2023-04-20T16:01:10.508Z,50.10
2023-04-20T16:03:39.743Z,70.30
2023-04-20T16:06:08.704Z,50.00
2023-04-20T16:08:38.462Z,54.20
2023-04-20T16:11:07.404Z,50.90
2023-04-20T16:13:36.646Z,54.60
2023-04-20T16:16:05.184Z,65.00
2023-04-20T16:18:34.158Z,48.90
2023-04-20T16:21:02.580Z,68.80
2023-04-20T16:23:31.606Z,54.10
2023-04-20T16:25:59.979Z,67.10
2023-04-20T16:28:28.267Z,43.20
2023-04-20T16:30:56.671Z,68.30
2023-04-20T16:33:25.671Z,45.20
2023-04-20T16:35:53.941Z,55.40
2023-04-20T16:38:22.928Z,63.10
2023-04-20T16:40:52.200Z,67.80
2023-04-20T16:43:21.908Z,54.20
2023-04-20T16:45:50.321Z,65.90
2023-04-20T16:48:18.651Z,47.50
2023-04-20T16:50:47.037Z,54.30
2023-04-20T16:53:17.988Z,49.50
2023-04-20T16:55:46.278Z,48.60
2023-04-20T16:58:15.365Z,64.70
2023-04-20T17:00:43.872Z,48.10
2023-04-20T17:03:13.788Z,41.40
2023-04-20T17:05:42.899Z,62.20
2023-04-20T17:08:11.754Z,76.80
2023-04-20T17:10:40.291Z,50.40
2023-04-20T17:13:08.823Z,54.30
2023-04-20T17:15:37.338Z,51.30
2023-04-20T17:18:07.075Z,52.40
2023-04-20T17:20:35.580Z,59.20
2023-04-20T17:23:03.919Z,43.80
2023-04-20T17:25:33.457Z,52.30
2023-04-20T17:28:02.871Z,68.90
2023-04-20T17:30:31.661Z,53.50
2023-04-20T17:33:00.939Z,66.00
2023-04-20T17:35:29.402Z,55.50
2023-04-20T17:37:59.920Z,69.40
2023-04-20T17:40:28.214Z,77.20
2023-04-20T17:42:56.733Z,72.60
2023-04-20T17:45:25.057Z,79.20
2023-04-20T17:47:53.906Z,78.90
2023-04-20T17:50:22.870Z,72.70
2023-04-20T17:52:51.888Z,67.90
2023-04-20T17:55:20.490Z,59.00
2023-04-20T17:57:48.839Z,62.80
2023-04-20T18:00:17.424Z,67.50
2023-04-20T18:02:46.270Z,70.60
2023-04-20T18:05:14.667Z,72.20
2023-04-20T18:07:43.186Z,77.30
2023-04-20T18:10:13.834Z,73.10
2023-04-20T18:12:45.050Z,73.60
2023-04-20T18:15:13.519Z,86.20
2023-04-20T18:17:42.747Z,68.40
2023-04-20T18:20:11.456Z,89.90
2023-04-20T18:22:40.185Z,71.50
2023-04-20T18:25:08.991Z,61.80
2023-04-20T18:27:38.026Z,65.00
2023-04-20T18:30:07.191Z,62.30
2023-04-20T18:32:38.947Z,77.10
2023-04-20T18:35:08.560Z,67.60
2023-04-20T18:37:38.521Z,65.20
2023-04-20T18:40:08.155Z,67.00
2023-04-20T18:42:37.128Z,69.00
2023-04-20T18:45:06.280Z,52.60
2023-04-20T18:47:34.832Z,58.80
2023-04-20T18:50:03.816Z,49.70
2023-04-20T18:52:33.630Z,58.50
2023-04-20T18:55:02.260Z,68.50
2023-04-20T18:57:30.881Z,81.50
2023-04-20T18:59:59.348Z,87.40
2023-04-20T19:02:27.977Z,70.40
2023-04-20T19:04:56.552Z,63.80
2023-04-20T19:07:24.857Z,77.20
2023-04-20T19:09:53.182Z,72.90
2023-04-20T19:12:21.831Z,62.30
2023-04-20T19:14:50.204Z,64.10
2023-04-20T19:17:18.500Z,64.70
2023-04-20T19:19:48.295Z,64.90
2023-04-20T19:22:17.254Z,61.20
2023-04-20T19:24:46.018Z,67.40
2023-04-20T19:27:14.507Z,59.60
2023-04-20T19:29:42.983Z,71.00
2023-04-20T19:32:11.722Z,61.40
2023-04-20T19:34:41.956Z,59.70
2023-04-20T19:37:10.824Z,71.30
2023-04-20T19:39:39.441Z,57.40
2023-04-20T19:42:07.975Z,74.80
2023-04-20T19:44:36.470Z,49.80
2023-04-20T19:47:04.862Z,62.50
2023-04-20T19:49:34.156Z,44.60
2023-04-20T19:52:02.547Z,49.70
2023-04-20T19:54:31.168Z,55.00
2023-04-20T19:56:59.494Z,61.60
2023-04-20T19:59:32.801Z,76.20
2023-04-20T20:02:01.209Z,63.10
2023-04-20T20:04:29.871Z,61.20
2023-04-20T20:06:59.439Z,64.60
2023-04-20T20:09:27.969Z,53.30
2023-04-20T20:11:56.463Z,73.20
2023-04-20T20:14:24.759Z,57.90
2023-04-20T20:16:53.103Z,64.60
2023-04-20T20:19:22.221Z,66.20
2023-04-20T20:21:51.356Z,48.90
2023-04-20T20:24:20.950Z,60.20
2023-04-20T20:26:49.729Z,66.30
2023-04-20T20:29:18.294Z,74.20
2023-04-20T20:31:47.065Z,69.30
2023-04-20T20:34:15.604Z,48.00
2023-04-20T20:36:46.425Z,48.40
2023-04-20T20:39:16.243Z,56.00
2023-04-20T20:41:45.084Z,76.10
2023-04-20T20:44:13.867Z,67.90
2023-04-20T20:46:42.497Z,59.40
2023-04-20T20:49:10.973Z,48.60
2023-04-20T20:51:40.048Z,44.80
2023-04-20T20:54:08.538Z,50.60
2023-04-20T20:56:37.380Z,49.70
2023-04-20T20:59:05.835Z,48.10
2023-04-20T21:01:34.257Z,55.10
2023-04-20T21:04:04.849Z,58.20
2023-04-20T21:06:35.173Z,46.30
2023-04-20T21:09:04.573Z,61.70
2023-04-20T21:11:33.067Z,60.40
2023-04-20T21:14:03.069Z,54.60
2023-04-20T21:16:31.528Z,62.90
2023-04-20T21:19:00.067Z,40.90
2023-04-20T21:21:29.221Z,52.80
2023-04-20T21:23:57.656Z,44.10
2023-04-20T21:26:26.173Z,48.70
2023-04-20T21:28:54.437Z,45.80
2023-04-20T21:31:22.710Z,48.80
2023-04-20T21:33:51.071Z,35.00
2023-04-20T21:36:19.496Z,51.30
2023-04-20T21:38:47.825Z,43.70
2023-04-20T21:41:16.258Z,67.30
2023-04-20T21:43:44.591Z,49.40
2023-04-20T21:46:16.891Z,48.60
2023-04-20T21:48:45.461Z,56.30
2023-04-20T21:51:18.139Z,50.10
2023-04-20T21:56:15.138Z,43.90
2023-04-20T21:58:43.616Z,63.20
2023-04-20T22:01:12.024Z,65.10
2023-04-20T22:03:40.535Z,55.20
2023-04-20T22:06:09.225Z,76.40
2023-04-20T22:08:40.148Z,54.10
2023-04-20T22:11:09.149Z,49.90
2023-04-20T22:13:37.916Z,54.90
2023-04-20T22:16:06.655Z,50.20
2023-04-20T22:18:34.946Z,64.10
2023-04-20T22:21:03.844Z,64.50
2023-04-20T22:28:52.472Z,64.50
2023-04-20T22:31:20.795Z,55.70
2023-04-20T22:33:49.103Z,58.00
2023-04-20T22:36:17.571Z,56.80
2023-04-20T22:38:46.002Z,54.40
2023-04-20T22:41:16.695Z,58.60
2023-04-20T22:43:45.727Z,59.40
2023-04-20T22:46:14.030Z,60.10
2023-04-20T22:48:42.363Z,47.50
2023-04-20T22:51:10.575Z,52.90
2023-04-20T22:53:38.845Z,55.20
2023-04-20T22:56:08.101Z,38.60
2023-04-20T22:58:36.691Z,60.20
2023-04-20T23:01:05.240Z,54.10
2023-04-20T23:03:34.031Z,53.50
2023-04-20T23:06:03.097Z,65.80
2023-04-20T23:08:34.149Z,54.60
2023-04-20T23:11:02.505Z,57.90
2023-04-20T23:13:31.470Z,45.70
2023-04-20T23:15:59.954Z,54.10
2023-04-20T23:18:28.348Z,55.00
2023-04-20T23:20:57.158Z,42.60
2023-04-20T23:23:25.713Z,55.30
2023-04-20T23:25:54.022Z,64.10
2023-04-20T23:28:22.814Z,38.20
2023-04-20T23:30:51.295Z,41.30
2023-04-20T23:33:19.525Z,45.40
2023-04-20T23:35:47.818Z,42.50
2023-04-20T23:38:16.577Z,38.20
2023-04-20T23:40:44.884Z,39.40
2023-04-20T23:43:13.555Z,51.20
2023-04-20T23:45:41.851Z,46.30
2023-04-20T23:48:10.204Z,42.20
2023-04-20T23:50:38.543Z,38.50
2023-04-20T23:53:07.755Z,46.10
2023-04-20T23:55:36.104Z,39.10
2023-04-20T23:58:04.577Z,52.00
